BAW554R EGLL-LIRF
Flight info
| Callsign | BAW554R |
|---|---|
| Flight time | N/A |
| Altitude | 35000 |
| Route | MODMI M185 MID L612 BOGNA UL612 OGULO DCT OKASI DCT OKEKO DCT MOU DCT MADIV DCT MOKIP DCT TUFTA DCT KOGAS DCT MEDAM DCT NITAM DCT MOGBO DCT ELB/N0449F360 DCT ELKAP |
| Aircraft | A320/M-SDE3FGHIRWY/LB1 |
Departure
| Time | 2026-05-06 10:52 |
|---|---|
| Airport | London Heathrow Airport (EGLL) |
Arrival
| Time | N/A |
|---|---|
| Airport | Rome–Fiumicino Leonardo da Vinci International Airport (LIRF) |
| Time | Latitude | Longitude | Altitude | Speed | Heading |
|---|---|---|---|---|---|
| 2026-05-06 10:08 | 51.47271 | -0.48585 | 86 ft | 0 kts | 270° |
| 2026-05-06 10:32 | 51.47272 | -0.48550 | 87 ft | 4 kts | 263° |
| 2026-05-06 10:32 | 51.47277 | -0.48508 | 88 ft | 4 kts | 245° |
| 2026-05-06 10:32 | 51.47292 | -0.48477 | 90 ft | 4 kts | 197° |
| 2026-05-06 10:33 | 51.47303 | -0.48474 | 89 ft | 1 kts | 180° |
| 2026-05-06 10:33 | 51.47304 | -0.48474 | 89 ft | 0 kts | 180° |
| 2026-05-06 10:36 | 51.47303 | -0.48474 | 89 ft | 1 kts | 180° |
| 2026-05-06 10:36 | 51.47279 | -0.48474 | 88 ft | 6 kts | 179° |
| 2026-05-06 10:37 | 51.47228 | -0.48472 | 88 ft | 8 kts | 179° |
| 2026-05-06 10:37 | 51.47162 | -0.48472 | 88 ft | 11 kts | 180° |
| 2026-05-06 10:37 | 51.47079 | -0.48471 | 88 ft | 13 kts | 179° |
| 2026-05-06 10:37 | 51.46982 | -0.48470 | 89 ft | 15 kts | 179° |
| 2026-05-06 10:38 | 51.46880 | -0.48468 | 87 ft | 14 kts | 180° |
| 2026-05-06 10:38 | 51.46832 | -0.48468 | 86 ft | 0 kts | 180° |
| 2026-05-06 10:47 | 51.46829 | -0.48468 | 86 ft | 2 kts | 180° |
| 2026-05-06 10:47 | 51.46773 | -0.48468 | 86 ft | 11 kts | 181° |
| 2026-05-06 10:48 | 51.46740 | -0.48566 | 86 ft | 12 kts | 273° |
| 2026-05-06 10:48 | 51.46735 | -0.48708 | 86 ft | 13 kts | 248° |
| 2026-05-06 10:48 | 51.46649 | -0.48749 | 86 ft | 14 kts | 180° |
| 2026-05-06 10:48 | 51.46597 | -0.48768 | 88 ft | 0 kts | 200° |
| 2026-05-06 10:49 | 51.46577 | -0.48779 | 87 ft | 10 kts | 200° |
| 2026-05-06 10:50 | 51.46501 | -0.48760 | 86 ft | 12 kts | 142° |
| 2026-05-06 10:50 | 51.46479 | -0.48627 | 86 ft | 14 kts | 89° |
| 2026-05-06 10:50 | 51.46479 | -0.48610 | 86 ft | 0 kts | 91° |
| 2026-05-06 10:51 | 51.46479 | -0.48609 | 86 ft | 0 kts | 91° |
| 2026-05-06 10:51 | 51.46479 | -0.48606 | 86 ft | 2 kts | 91° |
| 2026-05-06 10:51 | 51.46480 | -0.48378 | 87 ft | 50 kts | 89° |
| 2026-05-06 10:51 | 51.46482 | -0.47497 | 85 ft | 107 kts | 90° |
| 2026-05-06 10:52 | 51.46488 | -0.46042 | 86 ft | 149 kts | 89° |
| 2026-05-06 10:52 | 51.46491 | -0.44241 | 334 ft | 164 kts | 85° |
| 2026-05-06 10:52 | 51.46504 | -0.42407 | 864 ft | 168 kts | 87° |
| 2026-05-06 10:52 | 51.46116 | -0.40623 | 1383 ft | 183 kts | 127° |
| 2026-05-06 10:53 | 51.45053 | -0.39448 | 1738 ft | 199 kts | 148° |
| 2026-05-06 10:53 | 51.43823 | -0.38365 | 2204 ft | 204 kts | 149° |
| 2026-05-06 10:53 | 51.42530 | -0.37300 | 2594 ft | 215 kts | 152° |
| 2026-05-06 10:53 | 51.41148 | -0.36383 | 3262 ft | 212 kts | 162° |
| 2026-05-06 10:54 | 51.39673 | -0.36150 | 3815 ft | 218 kts | 187° |
| 2026-05-06 10:54 | 51.38219 | -0.36856 | 4324 ft | 222 kts | 209° |
| 2026-05-06 10:54 | 51.36823 | -0.37965 | 4839 ft | 228 kts | 209° |
| 2026-05-06 10:54 | 51.35333 | -0.39152 | 5040 ft | 252 kts | 209° |
| 2026-05-06 10:55 | 51.33690 | -0.40461 | 5348 ft | 276 kts | 209° |
| 2026-05-06 10:55 | 51.31943 | -0.41844 | 6088 ft | 282 kts | 209° |
| 2026-05-06 10:55 | 51.30181 | -0.43224 | 6943 ft | 282 kts | 208° |
| 2026-05-06 10:55 | 51.28508 | -0.44522 | 7687 ft | 286 kts | 208° |
| 2026-05-06 10:56 | 51.26709 | -0.45925 | 8466 ft | 289 kts | 209° |
| 2026-05-06 10:56 | 51.24896 | -0.47365 | 9267 ft | 293 kts | 208° |
| 2026-05-06 10:56 | 51.23053 | -0.48838 | 9989 ft | 298 kts | 207° |
| 2026-05-06 10:56 | 51.21172 | -0.50327 | 10352 ft | 316 kts | 208° |
| 2026-05-06 10:57 | 51.19133 | -0.51927 | 10499 ft | 339 kts | 207° |
| 2026-05-06 10:57 | 51.16950 | -0.53622 | 10782 ft | 354 kts | 207° |
| 2026-05-06 10:57 | 51.14718 | -0.55339 | 11380 ft | 359 kts | 208° |
| 2026-05-06 10:57 | 51.12469 | -0.57062 | 11989 ft | 362 kts | 208° |
| 2026-05-06 10:58 | 51.10173 | -0.58756 | 12608 ft | 365 kts | 202° |
| 2026-05-06 10:58 | 51.07704 | -0.59768 | 13265 ft | 369 kts | 188° |
| 2026-05-06 10:58 | 51.05116 | -0.59828 | 13916 ft | 373 kts | 174° |
| 2026-05-06 10:58 | 51.02569 | -0.58894 | 14424 ft | 379 kts | 160° |
| 2026-05-06 10:59 | 51.00253 | -0.57018 | 14999 ft | 381 kts | 147° |
| 2026-05-06 10:59 | 50.98050 | -0.54643 | 15514 ft | 385 kts | 147° |
| 2026-05-06 10:59 | 50.95828 | -0.52258 | 16076 ft | 386 kts | 147° |
| 2026-05-06 10:59 | 50.93596 | -0.49874 | 16633 ft | 388 kts | 147° |
| 2026-05-06 11:00 | 50.91347 | -0.47486 | 16915 ft | 389 kts | 147° |
| 2026-05-06 11:00 | 50.89096 | -0.45108 | 16972 ft | 389 kts | 147° |
| 2026-05-06 11:00 | 50.86845 | -0.42732 | 16973 ft | 389 kts | 147° |
| 2026-05-06 11:00 | 50.84588 | -0.40346 | 16975 ft | 390 kts | 147° |
| 2026-05-06 11:01 | 50.82326 | -0.37952 | 16978 ft | 393 kts | 147° |
| 2026-05-06 11:01 | 50.80053 | -0.35544 | 16975 ft | 394 kts | 147° |
| 2026-05-06 11:01 | 50.77775 | -0.33136 | 16974 ft | 394 kts | 147° |
| 2026-05-06 11:01 | 50.75493 | -0.30732 | 16975 ft | 394 kts | 147° |
| 2026-05-06 11:02 | 50.73213 | -0.28339 | 16976 ft | 393 kts | 147° |
| 2026-05-06 11:02 | 50.70942 | -0.25953 | 16976 ft | 391 kts | 147° |
| 2026-05-06 11:02 | 50.68676 | -0.23570 | 16978 ft | 392 kts | 147° |
| 2026-05-06 11:02 | 50.66403 | -0.21182 | 16978 ft | 392 kts | 147° |
| 2026-05-06 11:03 | 50.64136 | -0.18802 | 16974 ft | 392 kts | 147° |
| 2026-05-06 11:03 | 50.61851 | -0.16404 | 17274 ft | 396 kts | 147° |
| 2026-05-06 11:03 | 50.59547 | -0.13991 | 17839 ft | 399 kts | 147° |
| 2026-05-06 11:03 | 50.57232 | -0.11570 | 18364 ft | 401 kts | 147° |
| 2026-05-06 11:04 | 50.54895 | -0.09130 | 18844 ft | 404 kts | 147° |
| 2026-05-06 11:04 | 50.52582 | -0.06723 | 19329 ft | 406 kts | 148° |
| 2026-05-06 11:04 | 50.50212 | -0.04263 | 19832 ft | 408 kts | 148° |
| 2026-05-06 11:04 | 50.47837 | -0.01802 | 20344 ft | 410 kts | 148° |
| 2026-05-06 11:05 | 50.45450 | 0.00672 | 20829 ft | 412 kts | 148° |
| 2026-05-06 11:05 | 50.43058 | 0.03155 | 21312 ft | 413 kts | 148° |
| 2026-05-06 11:05 | 50.40654 | 0.05650 | 21751 ft | 415 kts | 148° |
| 2026-05-06 11:05 | 50.38237 | 0.08156 | 22182 ft | 418 kts | 148° |
| 2026-05-06 11:06 | 50.35873 | 0.10605 | 22621 ft | 419 kts | 148° |
| 2026-05-06 11:06 | 50.33433 | 0.13128 | 23066 ft | 421 kts | 148° |
| 2026-05-06 11:06 | 50.30984 | 0.15657 | 23518 ft | 423 kts | 148° |
| 2026-05-06 11:06 | 50.28521 | 0.18195 | 23881 ft | 424 kts | 148° |
| 2026-05-06 11:07 | 50.26046 | 0.20741 | 24239 ft | 426 kts | 148° |
| 2026-05-06 11:07 | 50.23560 | 0.23287 | 24587 ft | 428 kts | 149° |
| 2026-05-06 11:07 | 50.21061 | 0.25838 | 24924 ft | 430 kts | 149° |
| 2026-05-06 11:07 | 50.18554 | 0.28401 | 25239 ft | 432 kts | 148° |
| 2026-05-06 11:08 | 50.16026 | 0.30997 | 25536 ft | 435 kts | 148° |
| 2026-05-06 11:08 | 50.13495 | 0.33603 | 25858 ft | 437 kts | 147° |
| 2026-05-06 11:08 | 50.10955 | 0.36222 | 26183 ft | 439 kts | 147° |
| 2026-05-06 11:08 | 50.08398 | 0.38854 | 26525 ft | 441 kts | 147° |
| 2026-05-06 11:09 | 50.06127 | 0.41186 | 26827 ft | 441 kts | 147° |
| 2026-05-06 11:09 | 50.03785 | 0.43600 | 27141 ft | 416 kts | 147° |
| 2026-05-06 11:09 | 50.01444 | 0.46018 | 27478 ft | 391 kts | 147° |
| 2026-05-06 11:09 | 49.99229 | 0.48254 | 27810 ft | 368 kts | 147° |
| 2026-05-06 11:10 | 49.97146 | 0.50334 | 28137 ft | 344 kts | 147° |
| 2026-05-06 11:10 | 49.95192 | 0.52270 | 28017 ft | 336 kts | 147° |
| 2026-05-06 11:10 | 49.93211 | 0.54213 | 27581 ft | 336 kts | 147° |
| 2026-05-06 11:10 | 49.91238 | 0.56145 | 27235 ft | 334 kts | 147° |
| 2026-05-06 11:11 | 49.89283 | 0.58059 | 26877 ft | 332 kts | 147° |
| 2026-05-06 11:11 | 49.87333 | 0.59966 | 26511 ft | 330 kts | 147° |
| 2026-05-06 11:11 | 49.85392 | 0.61861 | 26156 ft | 329 kts | 147° |
| 2026-05-06 11:11 | 49.83459 | 0.63747 | 25794 ft | 328 kts | 147° |
| 2026-05-06 11:12 | 49.81550 | 0.65605 | 25806 ft | 320 kts | 147° |
| 2026-05-06 11:12 | 49.79630 | 0.67473 | 25952 ft | 330 kts | 147° |
| 2026-05-06 11:12 | 49.77655 | 0.69396 | 26082 ft | 340 kts | 147° |
| 2026-05-06 11:12 | 49.75624 | 0.71375 | 26214 ft | 350 kts | 147° |
| 2026-05-06 11:13 | 49.73533 | 0.73411 | 26341 ft | 360 kts | 147° |
| 2026-05-06 11:13 | 49.71385 | 0.75491 | 26474 ft | 369 kts | 147° |
| 2026-05-06 11:13 | 49.69182 | 0.77622 | 26598 ft | 378 kts | 147° |
| 2026-05-06 11:13 | 49.66957 | 0.79773 | 26742 ft | 386 kts | 148° |
| 2026-05-06 11:14 | 49.64655 | 0.81998 | 26865 ft | 395 kts | 148° |
| 2026-05-06 11:14 | 49.62300 | 0.84274 | 27000 ft | 403 kts | 148° |
| 2026-05-06 11:14 | 49.59902 | 0.86590 | 27133 ft | 411 kts | 148° |
| 2026-05-06 11:14 | 49.57454 | 0.88953 | 27251 ft | 418 kts | 148° |
| 2026-05-06 11:15 | 49.54964 | 0.91348 | 27399 ft | 425 kts | 148° |
| 2026-05-06 11:15 | 49.52431 | 0.93775 | 27525 ft | 432 kts | 148° |
| 2026-05-06 11:15 | 49.49851 | 0.96228 | 27661 ft | 439 kts | 147° |
| 2026-05-06 11:15 | 49.47228 | 0.98692 | 27856 ft | 444 kts | 148° |
| 2026-05-06 11:16 | 49.44593 | 1.01161 | 28261 ft | 444 kts | 148° |
| 2026-05-06 11:16 | 49.41999 | 1.03609 | 28739 ft | 442 kts | 148° |
| 2026-05-06 11:16 | 49.39383 | 1.06076 | 29218 ft | 440 kts | 148° |
| 2026-05-06 11:16 | 49.36765 | 1.08616 | 29714 ft | 438 kts | 142° |
| 2026-05-06 11:17 | 49.34698 | 1.11928 | 30130 ft | 434 kts | 121° |
| 2026-05-06 11:17 | 49.33567 | 1.16169 | 30483 ft | 431 kts | 98° |
| 2026-05-06 11:17 | 49.33235 | 1.20720 | 30832 ft | 430 kts | 96° |
| 2026-05-06 11:17 | 49.32536 | 1.25171 | 31179 ft | 432 kts | 111° |
| 2026-05-06 11:18 | 49.31113 | 1.29222 | 31521 ft | 433 kts | 122° |
| 2026-05-06 11:18 | 49.29100 | 1.32642 | 31866 ft | 435 kts | 142° |
| 2026-05-06 11:18 | 49.27400 | 1.34276 | 32083 ft | 438 kts | 151° |
| 2026-05-06 11:18 | 49.24446 | 1.36490 | 32362 ft | 434 kts | 153° |
| 2026-05-06 11:19 | 49.21850 | 1.38870 | 32654 ft | 434 kts | 143° |
| 2026-05-06 11:19 | 49.19439 | 1.41639 | 33027 ft | 434 kts | 141° |
| 2026-05-06 11:19 | 49.17101 | 1.44566 | 33412 ft | 433 kts | 138° |
| 2026-05-06 11:19 | 49.14811 | 1.47554 | 33793 ft | 433 kts | 138° |
| 2026-05-06 11:20 | 49.12532 | 1.50553 | 34129 ft | 432 kts | 138° |
| 2026-05-06 11:20 | 49.10247 | 1.53529 | 34412 ft | 432 kts | 139° |
| 2026-05-06 11:20 | 49.07947 | 1.56469 | 34717 ft | 432 kts | 140° |
| 2026-05-06 11:20 | 49.05628 | 1.59379 | 34898 ft | 431 kts | 141° |
| 2026-05-06 11:21 | 49.03287 | 1.62280 | 34939 ft | 436 kts | 141° |
| 2026-05-06 11:21 | 48.98515 | 1.68151 | 34926 ft | 442 kts | 141° |
| 2026-05-06 11:22 | 48.93726 | 1.74050 | 34938 ft | 444 kts | 141° |
| 2026-05-06 11:22 | 48.88930 | 1.79978 | 34923 ft | 443 kts | 141° |
| 2026-05-06 11:23 | 48.84185 | 1.85832 | 34922 ft | 441 kts | 141° |
| 2026-05-06 11:23 | 48.79407 | 1.91695 | 34914 ft | 442 kts | 141° |
| 2026-05-06 11:24 | 48.74674 | 1.97484 | 34909 ft | 443 kts | 141° |
| 2026-05-06 11:24 | 48.69878 | 2.03352 | 34912 ft | 444 kts | 141° |
| 2026-05-06 11:25 | 48.65067 | 2.09222 | 34932 ft | 443 kts | 142° |
| 2026-05-06 11:25 | 48.60411 | 2.14887 | 34931 ft | 443 kts | 141° |
| 2026-05-06 11:26 | 48.55720 | 2.20922 | 34916 ft | 444 kts | 135° |
| 2026-05-06 11:26 | 48.51376 | 2.27541 | 34926 ft | 444 kts | 135° |
| 2026-05-06 11:27 | 48.47026 | 2.34143 | 34926 ft | 444 kts | 135° |
| 2026-05-06 11:27 | 48.42667 | 2.40740 | 34924 ft | 444 kts | 135° |
| 2026-05-06 11:28 | 48.38324 | 2.47281 | 34912 ft | 445 kts | 135° |
| 2026-05-06 11:28 | 48.33937 | 2.53879 | 34916 ft | 445 kts | 135° |
| 2026-05-06 11:29 | 48.29513 | 2.60401 | 34933 ft | 445 kts | 141° |
| 2026-05-06 11:29 | 48.24302 | 2.65248 | 34936 ft | 440 kts | 156° |
| 2026-05-06 11:30 | 48.18759 | 2.69177 | 34925 ft | 440 kts | 154° |
| 2026-05-06 11:30 | 48.13359 | 2.73556 | 34902 ft | 442 kts | 152° |
| 2026-05-06 11:31 | 48.08888 | 2.77289 | 34902 ft | 443 kts | 153° |
| 2026-05-06 11:31 | 48.03274 | 2.81069 | 34918 ft | 443 kts | 157° |
| 2026-05-06 11:32 | 47.97592 | 2.84660 | 34904 ft | 444 kts | 158° |
| 2026-05-06 11:32 | 47.91902 | 2.88237 | 34917 ft | 444 kts | 158° |
| 2026-05-06 11:33 | 47.86266 | 2.91802 | 34921 ft | 444 kts | 158° |
| 2026-05-06 11:33 | 47.80582 | 2.95395 | 34926 ft | 443 kts | 158° |
| 2026-05-06 11:34 | 47.74897 | 2.98974 | 34930 ft | 442 kts | 158° |
| 2026-05-06 11:34 | 47.69248 | 3.02528 | 34926 ft | 442 kts | 158° |
| 2026-05-06 11:35 | 47.63623 | 3.06066 | 34926 ft | 441 kts | 158° |
| 2026-05-06 11:35 | 47.57971 | 3.09598 | 34919 ft | 441 kts | 158° |
| 2026-05-06 11:36 | 47.52328 | 3.13114 | 34920 ft | 441 kts | 158° |
| 2026-05-06 11:36 | 47.46663 | 3.16632 | 34913 ft | 441 kts | 158° |
| 2026-05-06 11:37 | 47.40999 | 3.20153 | 34910 ft | 441 kts | 158° |
| 2026-05-06 11:37 | 47.35437 | 3.23607 | 34915 ft | 441 kts | 158° |
| 2026-05-06 11:38 | 47.29684 | 3.27170 | 34901 ft | 441 kts | 158° |
| 2026-05-06 11:38 | 47.24017 | 3.30672 | 34895 ft | 441 kts | 158° |
| 2026-05-06 11:39 | 47.18351 | 3.34148 | 34901 ft | 441 kts | 159° |
| 2026-05-06 11:39 | 47.12689 | 3.37614 | 34905 ft | 441 kts | 159° |
| 2026-05-06 11:40 | 47.07023 | 3.41093 | 34905 ft | 441 kts | 159° |
| 2026-05-06 11:40 | 47.01358 | 3.44559 | 34901 ft | 441 kts | 159° |
| 2026-05-06 11:41 | 46.95698 | 3.48012 | 34900 ft | 441 kts | 159° |
| 2026-05-06 11:41 | 46.90027 | 3.51458 | 34903 ft | 441 kts | 159° |
| 2026-05-06 11:42 | 46.84356 | 3.54898 | 34901 ft | 442 kts | 159° |
| 2026-05-06 11:42 | 46.78714 | 3.58319 | 34903 ft | 442 kts | 159° |
| 2026-05-06 11:43 | 46.73437 | 3.62999 | 34900 ft | 446 kts | 138° |
| 2026-05-06 11:43 | 46.71369 | 3.66373 | 34901 ft | 448 kts | 127° |
| 2026-05-06 11:43 | 46.69797 | 3.70248 | 34899 ft | 451 kts | 116° |
| 2026-05-06 11:44 | 46.67997 | 3.79036 | 34885 ft | 455 kts | 105° |
| 2026-05-06 11:44 | 46.67238 | 3.83512 | 34885 ft | 455 kts | 106° |
| 2026-05-06 11:44 | 46.65704 | 3.92462 | 34892 ft | 456 kts | 106° |
| 2026-05-06 11:45 | 46.64164 | 4.01406 | 34889 ft | 456 kts | 106° |
| 2026-05-06 11:45 | 46.62610 | 4.10356 | 34879 ft | 457 kts | 107° |
| 2026-05-06 11:46 | 46.61042 | 4.19321 | 34883 ft | 457 kts | 107° |
| 2026-05-06 11:46 | 46.59469 | 4.28288 | 34887 ft | 458 kts | 107° |
| 2026-05-06 11:47 | 46.57903 | 4.37206 | 34896 ft | 458 kts | 107° |
| 2026-05-06 11:47 | 46.56308 | 4.46199 | 34889 ft | 458 kts | 107° |
| 2026-05-06 11:48 | 46.54712 | 4.55174 | 34899 ft | 459 kts | 107° |
| 2026-05-06 11:48 | 46.53106 | 4.64152 | 34901 ft | 459 kts | 107° |
| 2026-05-06 11:49 | 46.51495 | 4.73122 | 34913 ft | 459 kts | 107° |
| 2026-05-06 11:49 | 46.49869 | 4.82083 | 34917 ft | 459 kts | 107° |
| 2026-05-06 11:50 | 46.48247 | 4.91005 | 34902 ft | 460 kts | 108° |
| 2026-05-06 11:50 | 46.46610 | 4.99994 | 34908 ft | 461 kts | 108° |
| 2026-05-06 11:51 | 46.44960 | 5.08979 | 34909 ft | 462 kts | 108° |
| 2026-05-06 11:51 | 46.43300 | 5.17986 | 34913 ft | 463 kts | 108° |
| 2026-05-06 11:52 | 46.41636 | 5.27010 | 34896 ft | 463 kts | 108° |
| 2026-05-06 11:52 | 46.39953 | 5.36035 | 34910 ft | 464 kts | 110° |
| 2026-05-06 11:53 | 46.37327 | 5.44313 | 34915 ft | 454 kts | 128° |
| 2026-05-06 11:53 | 46.33316 | 5.51431 | 34929 ft | 451 kts | 134° |
| 2026-05-06 11:54 | 46.29239 | 5.58328 | 34937 ft | 451 kts | 134° |
| 2026-05-06 11:54 | 46.25192 | 5.65187 | 34938 ft | 451 kts | 135° |
| 2026-05-06 11:55 | 46.21114 | 5.72080 | 34942 ft | 451 kts | 135° |
| 2026-05-06 11:55 | 46.17034 | 5.78946 | 34945 ft | 451 kts | 135° |
| 2026-05-06 11:56 | 46.13012 | 5.85687 | 34943 ft | 451 kts | 135° |
| 2026-05-06 11:56 | 46.08853 | 5.92633 | 34941 ft | 450 kts | 135° |
| 2026-05-06 11:57 | 46.04765 | 5.99457 | 34948 ft | 451 kts | 136° |
| 2026-05-06 11:57 | 46.00668 | 6.06279 | 34946 ft | 450 kts | 136° |
| 2026-05-06 11:58 | 45.96594 | 6.13061 | 34954 ft | 450 kts | 136° |
| 2026-05-06 11:58 | 45.92494 | 6.19863 | 34959 ft | 450 kts | 136° |
| 2026-05-06 11:59 | 45.88469 | 6.26514 | 34956 ft | 449 kts | 136° |
| 2026-05-06 11:59 | 45.84367 | 6.33261 | 34934 ft | 448 kts | 137° |
| 2026-05-06 12:00 | 45.80166 | 6.39662 | 34954 ft | 441 kts | 146° |
| 2026-05-06 12:00 | 45.75272 | 6.44758 | 34950 ft | 436 kts | 150° |
| 2026-05-06 12:01 | 45.70380 | 6.49728 | 34954 ft | 436 kts | 150° |
| 2026-05-06 12:01 | 45.65435 | 6.54758 | 34945 ft | 435 kts | 150° |
| 2026-05-06 12:02 | 45.60497 | 6.59770 | 34936 ft | 435 kts | 150° |
| 2026-05-06 12:02 | 45.55554 | 6.64780 | 34906 ft | 435 kts | 151° |
| 2026-05-06 12:03 | 45.50621 | 6.69760 | 34933 ft | 433 kts | 152° |
| 2026-05-06 12:03 | 45.45701 | 6.74715 | 34915 ft | 433 kts | 152° |
| 2026-05-06 12:04 | 45.40795 | 6.79642 | 34901 ft | 431 kts | 152° |
| 2026-05-06 12:04 | 45.35880 | 6.84560 | 34878 ft | 432 kts | 152° |
| 2026-05-06 12:05 | 45.30970 | 6.89476 | 34875 ft | 432 kts | 152° |
| 2026-05-06 12:05 | 45.26114 | 6.94504 | 34876 ft | 436 kts | 145° |
| 2026-05-06 12:06 | 45.21720 | 7.00523 | 34875 ft | 439 kts | 143° |
| 2026-05-06 12:06 | 45.17343 | 7.06560 | 34888 ft | 438 kts | 143° |
| 2026-05-06 12:07 | 45.12990 | 7.12528 | 34878 ft | 437 kts | 143° |
| 2026-05-06 12:07 | 45.08967 | 7.19077 | 34893 ft | 448 kts | 133° |
| 2026-05-06 12:08 | 45.05397 | 7.26297 | 34898 ft | 448 kts | 133° |
| 2026-05-06 12:08 | 45.01814 | 7.33505 | 34901 ft | 448 kts | 133° |
| 2026-05-06 12:09 | 44.98175 | 7.40629 | 34828 ft | 443 kts | 138° |
| 2026-05-06 12:09 | 44.93908 | 7.46764 | 34803 ft | 437 kts | 143° |
| 2026-05-06 12:10 | 44.89578 | 7.52820 | 34801 ft | 438 kts | 143° |
| 2026-05-06 12:10 | 44.85251 | 7.58874 | 34808 ft | 438 kts | 143° |
| 2026-05-06 12:11 | 44.80921 | 7.64910 | 34802 ft | 438 kts | 144° |
| 2026-05-06 12:11 | 44.76581 | 7.70943 | 34810 ft | 438 kts | 144° |
| 2026-05-06 12:12 | 44.72236 | 7.76952 | 34781 ft | 438 kts | 144° |
| 2026-05-06 12:12 | 44.67892 | 7.82947 | 34805 ft | 438 kts | 144° |
| 2026-05-06 12:13 | 44.64284 | 7.87940 | 34809 ft | 438 kts | 143° |
| 2026-05-06 12:13 | 44.59938 | 7.93932 | 34814 ft | 438 kts | 144° |
| 2026-05-06 12:14 | 44.55584 | 7.99908 | 34795 ft | 437 kts | 144° |
| 2026-05-06 12:14 | 44.50532 | 8.06838 | 34810 ft | 437 kts | 144° |
| 2026-05-06 12:15 | 44.46886 | 8.11822 | 34811 ft | 437 kts | 145° |
| 2026-05-06 12:15 | 44.42533 | 8.17769 | 34818 ft | 437 kts | 145° |
| 2026-05-06 12:16 | 44.38183 | 8.23700 | 34831 ft | 437 kts | 145° |
| 2026-05-06 12:16 | 44.33829 | 8.29628 | 34831 ft | 437 kts | 145° |
| 2026-05-06 12:17 | 44.29467 | 8.35546 | 34798 ft | 437 kts | 145° |
| 2026-05-06 12:17 | 44.25101 | 8.41442 | 34820 ft | 437 kts | 146° |
| 2026-05-06 12:18 | 44.20733 | 8.47338 | 34840 ft | 437 kts | 145° |
| 2026-05-06 12:18 | 44.16358 | 8.53234 | 34861 ft | 437 kts | 145° |
| 2026-05-06 12:19 | 44.11990 | 8.59114 | 34871 ft | 437 kts | 145° |
| 2026-05-06 12:19 | 44.07615 | 8.64983 | 34853 ft | 437 kts | 145° |
| 2026-05-06 12:20 | 44.03234 | 8.70848 | 34862 ft | 437 kts | 145° |
| 2026-05-06 12:20 | 43.98873 | 8.76669 | 34854 ft | 438 kts | 145° |
| 2026-05-06 12:21 | 43.94472 | 8.82535 | 34876 ft | 438 kts | 145° |
| 2026-05-06 12:21 | 43.90072 | 8.88391 | 34880 ft | 439 kts | 145° |
| 2026-05-06 12:22 | 43.85661 | 8.94249 | 34864 ft | 439 kts | 145° |
| 2026-05-06 12:22 | 43.81233 | 9.00112 | 34871 ft | 439 kts | 145° |
| 2026-05-06 12:23 | 43.76809 | 9.05953 | 34889 ft | 440 kts | 145° |
| 2026-05-06 12:23 | 43.72407 | 9.11765 | 34876 ft | 440 kts | 144° |
| 2026-05-06 12:24 | 43.67969 | 9.17612 | 34886 ft | 441 kts | 145° |
| 2026-05-06 12:24 | 43.63518 | 9.23457 | 34879 ft | 442 kts | 144° |
| 2026-05-06 12:25 | 43.59065 | 9.29295 | 34899 ft | 442 kts | 144° |
| 2026-05-06 12:25 | 43.54594 | 9.35134 | 34907 ft | 442 kts | 144° |
| 2026-05-06 12:26 | 43.50124 | 9.40961 | 34917 ft | 443 kts | 145° |
| 2026-05-06 12:26 | 43.45649 | 9.46780 | 34898 ft | 443 kts | 145° |
| 2026-05-06 12:27 | 43.41158 | 9.52604 | 34886 ft | 444 kts | 144° |
| 2026-05-06 12:27 | 43.36657 | 9.58441 | 34896 ft | 446 kts | 144° |
| 2026-05-06 12:28 | 43.32141 | 9.64293 | 34905 ft | 447 kts | 144° |
| 2026-05-06 12:28 | 43.27616 | 9.70143 | 34917 ft | 447 kts | 144° |
| 2026-05-06 12:29 | 43.23081 | 9.75990 | 34927 ft | 447 kts | 144° |
| 2026-05-06 12:29 | 43.18540 | 9.81822 | 34936 ft | 447 kts | 144° |
| 2026-05-06 12:30 | 43.13994 | 9.87644 | 34912 ft | 447 kts | 144° |
| 2026-05-06 12:30 | 43.09477 | 9.93419 | 34930 ft | 447 kts | 144° |
| 2026-05-06 12:31 | 43.04934 | 9.99220 | 34943 ft | 446 kts | 144° |
| 2026-05-06 12:31 | 43.00391 | 10.05007 | 34946 ft | 446 kts | 144° |
| 2026-05-06 12:32 | 42.95846 | 10.10789 | 34924 ft | 446 kts | 144° |
| 2026-05-06 12:32 | 42.91295 | 10.16573 | 34933 ft | 446 kts | 144° |
| 2026-05-06 12:33 | 42.86743 | 10.22342 | 34919 ft | 447 kts | 144° |
| 2026-05-06 12:33 | 42.82206 | 10.28064 | 34927 ft | 447 kts | 144° |
| 2026-05-06 12:34 | 42.79917 | 10.30944 | 34716 ft | 449 kts | 144° |
| 2026-05-06 12:34 | 42.77640 | 10.33874 | 34473 ft | 452 kts | 140° |